Time;durP1;ratioP1;P1;durP2;ratioP2;P2;SDS_P1;SDS_P2;PMS_P1;PMS_P2;Temp;Humidity;BMP_temperature;BMP_pressure;BME280_temperature;BME280_humidity;BME280_pressure;Samples;Min_cycle;Max_cycle;Signal;HPM_P1;HPM_P2
2023/05/20 00:02:03;;;;;;;10.85;6.25;;;11.60;99.90;;;;;;7376638;19;20472;-66
2023/05/20 00:04:29;;;;;;;14.90;6.25;;;11.60;99.90;;;;;;7378133;19;20018;-58
2023/05/20 00:06:56;;;;;;;12.52;7.35;;;11.50;99.90;;;;;;7374295;19;20362;-59
2023/05/20 00:09:22;;;;;;;14.82;7.13;;;11.60;99.90;;;;;;7369783;19;20038;-58
2023/05/20 00:11:48;;;;;;;13.50;7.38;;;11.50;99.90;;;;;;7374440;19;20514;-66
2023/05/20 00:14:14;;;;;;;9.75;6.72;;;11.50;99.90;;;;;;7375390;19;20060;-66
2023/05/20 00:16:42;;;;;;;12.80;8.00;;;11.50;99.90;;;;;;7374157;19;20019;-59
2023/05/20 00:19:10;;;;;;;12.50;6.00;;;11.50;99.90;;;;;;7374052;19;20019;-66
2023/05/20 00:21:37;;;;;;;13.73;7.00;;;11.50;99.90;;;;;;7366372;19;20018;-67
2023/05/20 00:24:03;;;;;;;10.95;7.00;;;11.50;99.90;;;;;;7364867;19;20030;-67
2023/05/20 00:26:29;;;;;;;15.73;7.05;;;11.50;99.90;;;;;;7365199;19;20019;-65
2023/05/20 00:28:57;;;;;;;13.60;6.90;;;11.40;99.90;;;;;;7369559;19;20486;-65
2023/05/20 00:31:24;;;;;;;11.95;6.82;;;11.50;99.90;;;;;;7367484;19;20025;-65
2023/05/20 00:33:53;;;;;;;12.40;7.68;;;11.50;99.90;;;;;;7368942;19;20331;-66
2023/05/20 00:36:19;;;;;;;10.73;6.68;;;11.50;99.90;;;;;;7369396;19;20497;-67
2023/05/20 00:38:46;;;;;;;13.90;7.38;;;11.50;99.90;;;;;;7366541;19;20389;-67
2023/05/20 00:41:12;;;;;;;11.80;7.00;;;11.50;99.90;;;;;;7363588;19;20038;-59
2023/05/20 00:43:39;;;;;;;9.95;6.88;;;11.50;99.90;;;;;;7368602;19;20018;-65
2023/05/20 00:46:05;;;;;;;13.95;6.57;;;11.60;99.90;;;;;;7367652;19;20322;-66
2023/05/20 00:48:40;;;;;;;10.82;7.22;;;11.50;99.90;;;;;;7362750;19;20374;-68
2023/05/20 00:51:06;;;;;;;10.77;6.60;;;11.50;99.90;;;;;;7365772;19;20422;-66
2023/05/20 00:53:34;;;;;;;10.82;6.18;;;11.50;99.90;;;;;;7365949;19;20026;-67
2023/05/20 00:56:00;;;;;;;11.70;6.32;;;11.50;99.90;;;;;;7367983;19;20027;-66
2023/05/20 00:58:26;;;;;;;13.48;6.45;;;11.40;99.90;;;;;;7363652;19;20319;-66
2023/05/20 01:00:53;;;;;;;9.75;6.25;;;11.50;99.90;;;;;;7364483;19;20383;-58
2023/05/20 01:03:23;;;;;;;9.20;6.28;;;11.40;99.90;;;;;;7366535;19;20052;-57
2023/05/20 01:05:49;;;;;;;9.60;6.35;;;11.40;99.90;;;;;;7366985;19;20022;-58
2023/05/20 01:08:16;;;;;;;11.35;6.05;;;11.50;99.90;;;;;;7367639;19;20435;-58
2023/05/20 01:10:46;;;;;;;11.68;6.43;;;11.40;99.90;;;;;;7366258;19;20019;-58
2023/05/20 01:13:18;;;;;;;11.93;6.80;;;11.40;99.90;;;;;;7370082;19;20331;-58
2023/05/20 01:15:47;;;;;;;10.63;5.85;;;11.50;99.90;;;;;;7373748;19;20454;-58
2023/05/20 01:18:19;;;;;;;9.75;5.88;;;11.50;99.90;;;;;;7373486;19;20014;-58
2023/05/20 01:20:48;;;;;;;13.07;6.47;;;11.50;99.90;;;;;;7361886;19;20074;-58
2023/05/20 01:23:15;;;;;;;9.48;5.78;;;11.50;99.90;;;;;;7363009;19;20018;-57
2023/05/20 01:25:42;;;;;;;12.45;6.20;;;11.60;99.90;;;;;;7370896;19;20006;-59
2023/05/20 01:28:08;;;;;;;10.60;5.63;;;11.60;99.90;;;;;;7373913;19;20050;-58
2023/05/20 01:30:43;;;;;;;10.80;6.05;;;11.60;99.90;;;;;;7369816;19;20505;-58
2023/05/20 01:33:11;;;;;;;10.07;5.50;;;11.60;99.90;;;;;;7368778;19;20039;-59
2023/05/20 01:35:40;;;;;;;13.40;5.65;;;11.60;99.90;;;;;;7370234;19;20509;-59
2023/05/20 01:38:07;;;;;;;9.95;5.60;;;11.60;99.90;;;;;;7362761;19;20019;-65
2023/05/20 01:40:34;;;;;;;9.23;5.22;;;11.60;99.90;;;;;;7365794;19;20391;-66
2023/05/20 01:43:02;;;;;;;10.68;5.32;;;11.60;99.90;;;;;;7363550;19;20403;-66
2023/05/20 01:45:28;;;;;;;11.77;5.72;;;11.50;99.90;;;;;;7374481;19;20561;-66
2023/05/20 01:47:54;;;;;;;8.82;5.78;;;11.50;99.90;;;;;;7374754;19;20018;-66
2023/05/20 01:50:21;;;;;;;8.30;5.25;;;11.50;99.90;;;;;;7372436;19;20026;-67
2023/05/20 01:52:47;;;;;;;6.93;5.40;;;11.60;99.90;;;;;;7374016;19;20441;-66
2023/05/20 01:55:13;;;;;;;9.13;5.25;;;11.60;99.90;;;;;;7371849;19;20054;-66
2023/05/20 01:57:40;;;;;;;8.38;5.30;;;11.50;99.90;;;;;;7374520;19;20018;-66
2023/05/20 02:00:10;;;;;;;8.00;4.78;;;11.50;99.90;;;;;;7368706;19;20014;-66
2023/05/20 02:02:44;;;;;;;8.00;5.10;;;11.50;99.90;;;;;;7372543;19;20600;-67
2023/05/20 02:05:12;;;;;;;9.23;5.05;;;11.50;99.90;;;;;;7373055;19;20038;-67
2023/05/20 02:07:38;;;;;;;10.50;4.97;;;11.40;99.90;;;;;;7369516;19;20011;-66
2023/05/20 02:10:05;;;;;;;7.25;4.95;;;11.40;99.90;;;;;;7368202;19;20862;-67
2023/05/20 02:12:31;;;;;;;12.38;5.45;;;11.40;99.90;;;;;;7363436;19;20031;-67
2023/05/20 02:14:57;;;;;;;10.20;5.22;;;11.40;99.90;;;;;;7364333;19;20061;-66
2023/05/20 02:17:23;;;;;;;11.80;5.30;;;11.40;99.90;;;;;;7364072;19;20521;-67
2023/05/20 02:19:50;;;;;;;10.15;4.90;;;11.40;99.90;;;;;;7360493;19;20026;-66
2023/05/20 02:22:19;;;;;;;10.77;4.93;;;11.40;99.90;;;;;;7360232;19;21063;-66
2023/05/20 02:24:46;;;;;;;7.45;5.45;;;11.40;99.90;;;;;;7362763;19;20070;-67
2023/05/20 02:27:12;;;;;;;8.98;5.18;;;11.40;99.90;;;;;;7363917;19;20025;-67
2023/05/20 02:29:38;;;;;;;8.77;5.07;;;11.30;99.90;;;;;;7367357;19;20074;-66
2023/05/20 02:32:06;;;;;;;9.02;5.03;;;11.30;99.90;;;;;;7366508;19;20018;-67
2023/05/20 02:34:32;;;;;;;9.18;4.88;;;11.30;99.90;;;;;;7368219;19;20022;-66
2023/05/20 02:36:58;;;;;;;8.90;5.03;;;11.30;99.90;;;;;;7363912;19;20021;-67
2023/05/20 02:39:24;;;;;;;8.10;5.70;;;11.40;99.90;;;;;;7369432;19;20475;-67
2023/05/20 02:41:51;;;;;;;8.02;4.85;;;11.40;99.90;;;;;;7370521;19;20028;-66
2023/05/20 02:44:17;;;;;;;8.23;5.47;;;11.40;99.90;;;;;;7368398;19;20025;-66
2023/05/20 02:46:43;;;;;;;8.40;4.47;;;11.40;99.90;;;;;;7373111;19;20026;-67
2023/05/20 02:49:09;;;;;;;9.65;4.63;;;11.40;99.90;;;;;;7354419;19;20416;-67
2023/05/20 02:51:36;;;;;;;10.82;4.90;;;11.40;99.90;;;;;;7356597;19;20371;-66
2023/05/20 02:54:02;;;;;;;7.22;5.03;;;11.30;99.90;;;;;;7369742;19;20015;-67
2023/05/20 02:56:29;;;;;;;8.57;4.90;;;11.30;99.90;;;;;;7368851;19;20044;-66
2023/05/20 02:58:55;;;;;;;8.82;5.20;;;11.30;99.90;;;;;;7370701;19;20006;-66
2023/05/20 03:01:23;;;;;;;11.15;5.55;;;11.30;99.90;;;;;;7368412;19;20023;-65
2023/05/20 03:03:49;;;;;;;7.65;5.00;;;11.30;99.90;;;;;;7369517;19;20014;-58
2023/05/20 03:06:15;;;;;;;8.88;4.82;;;11.30;99.90;;;;;;7371740;19;20390;-65
2023/05/20 03:08:42;;;;;;;8.38;4.53;;;11.30;99.90;;;;;;7366023;19;20428;-65
2023/05/20 03:11:08;;;;;;;8.32;4.80;;;11.20;99.90;;;;;;7370821;19;20025;-66
2023/05/20 03:13:34;;;;;;;8.75;4.75;;;11.30;99.90;;;;;;7370703;19;20375;-65
2023/05/20 03:16:00;;;;;;;8.00;4.72;;;11.30;99.90;;;;;;7371340;19;20038;-65
2023/05/20 03:18:27;;;;;;;10.50;4.63;;;11.30;99.90;;;;;;7366515;19;20014;-65
2023/05/20 03:20:53;;;;;;;7.25;4.38;;;11.20;99.90;;;;;;7355375;19;20808;-66
2023/05/20 03:23:20;;;;;;;7.32;4.47;;;11.20;99.90;;;;;;7355417;19;20126;-65
2023/05/20 03:25:47;;;;;;;9.38;4.75;;;11.20;99.90;;;;;;7352624;19;20022;-66
2023/05/20 03:28:13;;;;;;;9.13;4.95;;;11.20;99.90;;;;;;7367354;19;20014;-66
2023/05/20 03:30:39;;;;;;;8.60;4.47;;;11.10;99.90;;;;;;7368504;19;20014;-66
2023/05/20 03:33:07;;;;;;;9.45;4.57;;;11.10;99.90;;;;;;7367444;19;20604;-66
2023/05/20 03:35:33;;;;;;;7.15;4.28;;;11.00;99.90;;;;;;7367467;19;20351;-66
2023/05/20 03:38:00;;;;;;;11.50;4.75;;;11.00;99.90;;;;;;7368096;19;20074;-66
2023/05/20 03:40:27;;;;;;;8.70;4.38;;;10.90;99.90;;;;;;7368112;19;20022;-66
2023/05/20 03:42:54;;;;;;;8.98;4.57;;;10.90;99.90;;;;;;7368721;19;20035;-65
2023/05/20 03:45:21;;;;;;;9.00;4.97;;;10.90;99.90;;;;;;7370032;19;20023;-66
2023/05/20 03:47:59;;;;;;;9.50;4.95;;;10.80;99.90;;;;;;7367599;19;20022;-66
2023/05/20 03:50:25;;;;;;;6.45;4.30;;;10.80;99.90;;;;;;7366514;19;20943;-66
2023/05/20 03:52:51;;;;;;;10.38;5.38;;;10.80;99.90;;;;;;7369465;19;20010;-66
2023/05/20 03:55:23;;;;;;;12.90;4.65;;;10.70;99.90;;;;;;7349526;19;20021;-66
2023/05/20 03:57:50;;;;;;;10.32;5.03;;;10.70;99.90;;;;;;7353595;19;20025;-66
2023/05/20 04:00:17;;;;;;;6.63;4.47;;;10.70;99.90;;;;;;7352119;19;20348;-66
2023/05/20 04:02:43;;;;;;;8.07;4.70;;;10.70;99.90;;;;;;7362135;19;20025;-66
2023/05/20 04:05:12;;;;;;;6.95;4.35;;;10.60;99.90;;;;;;7368857;19;20018;-66
2023/05/20 04:07:39;;;;;;;11.10;5.25;;;10.60;99.90;;;;;;7366291;19;20026;-66
2023/05/20 04:10:07;;;;;;;7.45;4.57;;;10.60;99.90;;;;;;7368778;19;20411;-66
2023/05/20 04:12:35;;;;;;;7.95;5.20;;;10.60;99.90;;;;;;7366731;19;20019;-57
2023/05/20 04:15:02;;;;;;;9.70;4.53;;;10.60;99.90;;;;;;7369920;19;20042;-65
2023/05/20 04:17:37;;;;;;;9.38;4.70;;;10.60;99.90;;;;;;7366457;19;20510;-65
2023/05/20 04:20:07;;;;;;;7.53;4.03;;;10.60;99.90;;;;;;7369040;19;20043;-58
2023/05/20 04:22:36;;;;;;;7.65;4.38;;;10.70;99.90;;;;;;7361019;19;20020;-58
2023/05/20 04:25:04;;;;;;;7.63;4.40;;;10.70;99.90;;;;;;7369591;19;20022;-58
2023/05/20 04:27:32;;;;;;;7.25;4.80;;;10.70;99.90;;;;;;7365844;19;20015;-58
2023/05/20 04:30:01;;;;;;;7.43;3.75;;;10.80;99.90;;;;;;7373198;19;20018;-57
2023/05/20 04:32:29;;;;;;;6.97;4.00;;;10.80;99.90;;;;;;7374131;19;20463;-60
2023/05/20 04:34:56;;;;;;;11.43;3.90;;;10.90;99.90;;;;;;7358418;19;20359;-65
2023/05/20 04:37:24;;;;;;;8.55;3.67;;;10.90;99.90;;;;;;7354711;19;20017;-65
2023/05/20 04:39:51;;;;;;;9.30;4.28;;;11.00;99.90;;;;;;7355266;19;20109;-66
2023/05/20 04:42:18;;;;;;;7.18;3.55;;;11.10;99.90;;;;;;7353591;19;20117;-65
2023/05/20 04:44:45;;;;;;;6.90;3.40;;;11.10;99.90;;;;;;7359288;19;20022;-66
2023/05/20 04:47:11;;;;;;;6.90;3.60;;;11.20;99.90;;;;;;7373076;19;20026;-65
2023/05/20 04:49:38;;;;;;;6.88;3.63;;;11.30;99.90;;;;;;7372639;19;20039;-64
2023/05/20 04:52:06;;;;;;;6.78;3.50;;;11.50;99.90;;;;;;7372041;19;20039;-62
2023/05/20 04:54:33;;;;;;;6.20;3.67;;;11.70;99.90;;;;;;7372641;19;20025;-63
2023/05/20 04:57:00;;;;;;;6.25;3.40;;;11.70;99.90;;;;;;7372151;19;20018;-63
2023/05/20 04:59:26;;;;;;;6.13;3.35;;;11.90;99.90;;;;;;7373416;19;20673;-63
2023/05/20 05:01:52;;;;;;;6.28;3.58;;;11.90;99.90;;;;;;7374410;19;21408;-62
2023/05/20 05:04:19;;;;;;;6.28;3.33;;;12.00;99.90;;;;;;7374996;19;20050;-62
2023/05/20 05:06:47;;;;;;;7.75;3.38;;;12.10;99.90;;;;;;7371456;19;20093;-62
2023/05/20 05:09:14;;;;;;;7.93;4.20;;;12.30;99.90;;;;;;7375134;19;20019;-63
2023/05/20 05:11:43;;;;;;;7.70;3.40;;;12.40;99.90;;;;;;7368618;19;20459;-63
2023/05/20 05:14:10;;;;;;;6.20;3.20;;;12.60;99.90;;;;;;7370948;19;20011;-63
2023/05/20 05:16:36;;;;;;;7.05;2.83;;;12.90;99.90;;;;;;7367980;19;20454;-63
2023/05/20 05:19:02;;;;;;;8.05;3.53;;;13.00;99.90;;;;;;7365802;19;20025;-62
2023/05/20 05:21:31;;;;;;;7.30;2.80;;;13.20;99.90;;;;;;7360011;19;20039;-62
2023/05/20 05:23:58;;;;;;;5.60;2.88;;;13.40;99.90;;;;;;7360767;19;20108;-62
2023/05/20 05:26:25;;;;;;;5.63;2.70;;;13.60;99.90;;;;;;7364139;19;20021;-62
2023/05/20 05:28:54;;;;;;;9.32;2.92;;;13.90;99.90;;;;;;7361935;19;20024;-62
2023/05/20 05:31:20;;;;;;;6.63;2.88;;;13.90;99.90;;;;;;7368336;19;20433;-63
2023/05/20 05:33:47;;;;;;;6.43;2.75;;;14.10;99.90;;;;;;7369084;19;20021;-62
2023/05/20 05:36:15;;;;;;;7.80;2.47;;;14.30;99.90;;;;;;7371017;19;20070;-62
2023/05/20 05:38:43;;;;;;;5.28;2.17;;;14.50;99.90;;;;;;7365657;19;20027;-63
2023/05/20 05:41:09;;;;;;;7.45;2.40;;;14.70;99.90;;;;;;7367906;19;20101;-62
2023/05/20 05:43:36;;;;;;;5.22;2.60;;;14.90;99.90;;;;;;7363497;19;20022;-63
2023/05/20 05:46:03;;;;;;;4.55;2.35;;;15.10;99.90;;;;;;7367924;19;20025;-62
2023/05/20 05:48:30;;;;;;;4.38;2.00;;;15.30;99.90;;;;;;7365638;19;20042;-63
2023/05/20 05:50:56;;;;;;;5.68;2.45;;;15.40;99.90;;;;;;7367509;19;20029;-62
2023/05/20 05:53:23;;;;;;;4.10;2.22;;;15.50;99.90;;;;;;7365636;19;20010;-62
2023/05/20 05:55:52;;;;;;;3.65;2.38;;;15.30;99.90;;;;;;7367817;19;20018;-62
2023/05/20 05:58:19;;;;;;;4.00;2.03;;;15.50;99.90;;;;;;7369869;19;20474;-62
2023/05/20 06:00:46;;;;;;;4.97;1.98;;;15.70;99.90;;;;;;7367887;19;20018;-64
2023/05/20 06:03:12;;;;;;;5.40;2.45;;;15.80;99.90;;;;;;7368997;19;20015;-64
2023/05/20 06:05:39;;;;;;;4.63;2.20;;;15.90;99.90;;;;;;7371286;19;20614;-65
2023/05/20 06:08:06;;;;;;;4.28;1.98;;;16.00;99.90;;;;;;7368719;19;20019;-63
2023/05/20 06:10:33;;;;;;;4.28;2.03;;;16.00;99.90;;;;;;7367583;19;20022;-63
2023/05/20 06:13:00;;;;;;;4.15;1.98;;;16.10;99.90;;;;;;7364219;19;20053;-63
2023/05/20 06:15:26;;;;;;;3.92;2.00;;;16.30;99.90;;;;;;7364331;19;20026;-61
2023/05/20 06:17:54;;;;;;;48.58;42.95;;;16.40;99.90;;;;;;7361191;19;20022;-62
2023/05/20 06:20:20;;;;;;;14.57;11.00;;;16.40;99.90;;;;;;7359334;19;20551;-62
2023/05/20 06:22:47;;;;;;;11.40;8.70;;;16.60;99.90;;;;;;7353736;19;20615;-62
2023/05/20 06:25:13;;;;;;;12.70;9.57;;;16.70;99.90;;;;;;7363992;19;20029;-63
2023/05/20 06:27:40;;;;;;;8.38;4.35;;;16.90;99.90;;;;;;7367286;19;20025;-62
2023/05/20 06:30:10;;;;;;;8.73;5.45;;;16.90;99.90;;;;;;7370107;19;20727;-63
2023/05/20 06:32:36;;;;;;;7.93;6.50;;;17.00;99.90;;;;;;7369047;19;20018;-63
2023/05/20 06:35:02;;;;;;;4.07;2.17;;;17.10;99.90;;;;;;7362691;19;20019;-63
2023/05/20 06:37:30;;;;;;;7.60;4.00;;;17.20;97.70;;;;;;7368145;19;20018;-63
2023/05/20 06:39:57;;;;;;;4.93;3.13;;;17.20;99.80;;;;;;7367117;19;20029;-63
2023/05/20 06:42:25;;;;;;;7.78;6.95;;;17.20;98.50;;;;;;7364744;19;20022;-63
2023/05/20 06:45:03;;;;;;;30.08;25.40;;;17.40;94.80;;;;;;7370167;19;20018;-64
2023/05/20 06:47:40;;;;;;;56.17;50.03;;;17.50;94.30;;;;;;7366667;19;20018;-64
2023/05/20 06:50:07;;;;;;;7.10;4.28;;;17.50;94.70;;;;;;7364776;19;20018;-63
2023/05/20 06:52:34;;;;;;;9.65;7.40;;;17.50;93.60;;;;;;7356398;19;20398;-64
2023/05/20 06:55:02;;;;;;;27.83;24.95;;;17.60;93.50;;;;;;7360985;19;20484;-64
2023/05/20 06:57:28;;;;;;;7.68;4.10;;;17.70;93.20;;;;;;7354268;19;20062;-61
2023/05/20 06:59:55;;;;;;;9.32;7.15;;;17.80;92.70;;;;;;7372206;19;20046;-61
2023/05/20 07:02:21;;;;;;;5.63;3.53;;;18.10;92.30;;;;;;7371273;19;20033;-66
2023/05/20 07:04:48;;;;;;;8.10;4.47;;;18.20;90.50;;;;;;7370199;19;20629;-61
2023/05/20 07:07:14;;;;;;;7.47;3.85;;;18.30;85.60;;;;;;7371638;19;20391;-66
2023/05/20 07:09:42;;;;;;;4.45;3.17;;;18.30;85.90;;;;;;7376806;19;20892;-65
2023/05/20 07:12:08;;;;;;;12.73;7.00;;;18.50;85.40;;;;;;7379612;19;20470;-65
2023/05/20 07:14:35;;;;;;;4.80;2.03;;;18.50;85.30;;;;;;7373077;19;20015;-63
2023/05/20 07:17:03;;;;;;;7.15;5.28;;;18.70;86.00;;;;;;7363684;19;20022;-63
2023/05/20 07:19:30;;;;;;;14.07;10.48;;;18.80;84.90;;;;;;7367003;19;20530;-64
2023/05/20 07:21:56;;;;;;;26.40;17.20;;;19.00;83.40;;;;;;7371075;19;20557;-65
2023/05/20 07:24:35;;;;;;;27.65;24.83;;;19.00;82.50;;;;;;7374046;19;20015;-66
2023/05/20 07:27:03;;;;;;;21.00;18.65;;;19.30;80.70;;;;;;7375734;19;20018;-65
2023/05/20 07:29:30;;;;;;;4.53;2.90;;;19.20;78.30;;;;;;7375034;19;20019;-65
2023/05/20 07:31:57;;;;;;;20.08;15.15;;;19.30;77.70;;;;;;7376286;19;20562;-65
2023/05/20 07:34:23;;;;;;;24.58;21.13;;;19.50;75.30;;;;;;7374999;19;20501;-65
2023/05/20 07:36:50;;;;;;;10.90;7.40;;;19.70;76.00;;;;;;7371345;19;21379;-65
2023/05/20 07:39:18;;;;;;;8.85;4.13;;;19.80;73.80;;;;;;7370907;19;20014;-65
2023/05/20 07:41:44;;;;;;;3.38;2.47;;;20.00;72.90;;;;;;7371377;19;20039;-64
2023/05/20 07:44:12;;;;;;;41.42;37.08;;;20.20;72.60;;;;;;7362991;19;20057;-64
2023/05/20 07:46:42;;;;;;;25.52;22.75;;;20.20;72.40;;;;;;7367844;19;20528;-62
2023/05/20 07:49:09;;;;;;;10.43;7.47;;;20.40;69.90;;;;;;7369419;19;20022;-65
2023/05/20 07:51:35;;;;;;;28.42;25.70;;;20.40;70.20;;;;;;7371960;19;20477;-65
2023/05/20 07:54:02;;;;;;;18.10;16.23;;;20.70;69.00;;;;;;7368499;19;20022;-65
2023/05/20 07:56:29;;;;;;;13.15;9.98;;;20.80;66.00;;;;;;7363112;19;20362;-64
2023/05/20 07:58:58;;;;;;;7.72;6.85;;;20.80;64.40;;;;;;7365255;19;20025;-68
2023/05/20 08:01:28;;;;;;;;;;;21.00;64.10;;;;;;7366650;19;20643;-66
2023/05/20 08:03:55;;;;;;;5.35;2.75;;;20.80;65.50;;;;;;7370678;19;19926;-66
2023/05/20 08:06:23;;;;;;;4.97;2.75;;;21.00;65.20;;;;;;7373960;19;20064;-69
2023/05/20 08:08:53;;;;;;;4.95;2.63;;;21.30;64.80;;;;;;7375561;19;20010;-63
2023/05/20 08:11:23;;;;;;;13.18;10.85;;;21.20;64.10;;;;;;7377277;19;20029;-67
2023/05/20 08:13:49;;;;;;;19.77;17.48;;;21.50;64.20;;;;;;7379920;19;20018;-66
2023/05/20 08:16:17;;;;;;;35.70;32.47;;;21.60;63.80;;;;;;7379806;19;20019;-67
2023/05/20 08:18:44;;;;;;;7.20;2.85;;;21.70;63.10;;;;;;7373398;19;20026;-66
2023/05/20 08:21:12;;;;;;;4.40;2.28;;;21.70;60.10;;;;;;7371674;19;20014;-66
2023/05/20 08:23:39;;;;;;;4.90;2.85;;;21.90;59.30;;;;;;7374016;19;20462;-68
2023/05/20 08:26:06;;;;;;;6.30;2.83;;;21.60;60.70;;;;;;7372820;19;20474;-68
2023/05/20 08:28:36;;;;;;;4.43;2.53;;;21.60;60.70;;;;;;7371619;19;20613;-67
2023/05/20 08:31:03;;;;;;;5.10;2.92;;;21.90;60.40;;;;;;7374926;19;20011;-67
2023/05/20 08:33:31;;;;;;;4.38;2.78;;;22.00;60.00;;;;;;7370675;19;20093;-69
2023/05/20 08:36:00;;;;;;;4.93;2.20;;;22.20;59.40;;;;;;7378634;19;20022;-66
2023/05/20 08:38:31;;;;;;;18.63;14.95;;;22.30;58.70;;;;;;7377381;19;20635;-66
2023/05/20 08:40:58;;;;;;;21.70;15.90;;;22.40;58.30;;;;;;7377036;19;20022;-66
2023/05/20 08:43:26;;;;;;;7.25;5.28;;;22.00;57.60;;;;;;7374358;19;20022;-66
2023/05/20 08:45:52;;;;;;;17.25;14.20;;;22.10;56.00;;;;;;7367486;19;20022;-66
2023/05/20 08:48:22;;;;;;;10.85;7.38;;;22.30;57.70;;;;;;7368585;19;20018;-67
2023/05/20 08:50:52;;;;;;;13.55;7.78;;;22.60;57.90;;;;;;7361689;19;20057;-66
2023/05/20 08:53:22;;;;;;;8.30;5.93;;;22.60;56.20;;;;;;7369685;19;20410;-68
2023/05/20 08:55:56;;;;;;;11.20;8.70;;;22.50;56.90;;;;;;7368577;19;20015;-66
2023/05/20 08:58:23;;;;;;;8.30;4.10;;;22.80;55.30;;;;;;7363492;19;20530;-66
2023/05/20 09:00:51;;;;;;;6.93;5.07;;;22.90;54.80;;;;;;7366454;19;20506;-66
2023/05/20 09:03:22;;;;;;;6.25;3.10;;;23.00;54.70;;;;;;7362142;19;20030;-66
2023/05/20 09:05:48;;;;;;;6.75;5.95;;;23.00;53.50;;;;;;7366488;19;20584;-63
2023/05/20 09:08:15;;;;;;;8.32;7.18;;;23.00;52.50;;;;;;7371147;19;20818;-61
2023/05/20 09:10:41;;;;;;;4.97;3.35;;;23.20;52.40;;;;;;7374029;19;20577;-66
2023/05/20 09:13:09;;;;;;;10.88;8.63;;;23.40;52.20;;;;;;7375287;19;20022;-66
2023/05/20 09:15:36;;;;;;;7.80;5.68;;;23.20;52.90;;;;;;7371250;19;20381;-61
2023/05/20 09:18:04;;;;;;;6.78;4.80;;;23.20;52.10;;;;;;7376259;19;20022;-61
2023/05/20 09:20:36;;;;;;;5.45;3.67;;;23.50;52.10;;;;;;7373835;19;20029;-61
2023/05/20 09:23:05;;;;;;;5.88;4.40;;;23.40;51.50;;;;;;7372303;19;20018;-61
2023/05/20 09:25:35;;;;;;;6.65;4.03;;;23.20;51.30;;;;;;7370146;19;20027;-70
2023/05/20 09:28:04;;;;;;;5.50;3.08;;;23.40;52.30;;;;;;7377246;19;20390;-71
2023/05/20 09:30:31;;;;;;;3.47;2.25;;;23.40;50.30;;;;;;7375848;19;20022;-71
2023/05/20 09:32:59;;;;;;;7.07;2.08;;;23.40;50.30;;;;;;7376079;19;20016;-67
2023/05/20 09:35:27;;;;;;;4.35;2.40;;;23.20;50.80;;;;;;7369268;19;20973;-67
2023/05/20 09:37:55;;;;;;;4.22;2.00;;;23.50;50.80;;;;;;7367883;19;20611;-68
2023/05/20 09:40:28;;;;;;;4.97;2.60;;;23.70;50.30;;;;;;7366602;19;20014;-66
2023/05/20 09:43:03;;;;;;;4.53;2.00;;;23.90;50.30;;;;;;7370181;19;20081;-61
2023/05/20 09:45:29;;;;;;;7.78;2.80;;;23.80;50.70;;;;;;7367389;19;20439;-62
2023/05/20 09:47:56;;;;;;;4.32;2.20;;;23.90;49.70;;;;;;7366371;19;20037;-61
2023/05/20 09:50:24;;;;;;;5.38;2.30;;;24.00;49.80;;;;;;7369211;19;20391;-62
2023/05/20 09:52:54;;;;;;;7.40;2.70;;;24.00;48.70;;;;;;7378334;19;20627;-65
2023/05/20 09:55:23;;;;;;;19.40;15.23;;;23.80;49.40;;;;;;7367549;19;20533;-67
2023/05/20 09:57:50;;;;;;;8.10;4.03;;;24.10;49.10;;;;;;7373315;19;20056;-66
2023/05/20 10:00:17;;;;;;;11.60;4.05;;;24.30;47.70;;;;;;7377481;19;20492;-66
2023/05/20 10:02:48;;;;;;;5.30;2.90;;;24.20;48.80;;;;;;7377786;19;20024;-65
2023/05/20 10:05:19;;;;;;;5.57;2.03;;;23.90;48.70;;;;;;7371715;19;20078;-69
2023/05/20 10:08:15;;;;;;;4.28;2.03;;;24.10;47.90;;;;;;7371798;19;20014;-66
2023/05/20 10:10:47;;;;;;;5.22;2.75;;;24.20;47.70;;;;;;7373991;19;20015;-66
2023/05/20 10:13:44;;;;;;;4.05;1.85;;;24.70;47.30;;;;;;7377628;19;20074;-64
2023/05/20 10:17:08;;;;;;;2.67;1.70;;;24.60;46.40;;;;;;7369988;19;20794;-64
2023/05/20 10:19:35;;;;;;;5.50;1.90;;;24.20;47.20;;;;;;7367628;19;20018;-69
2023/05/20 10:22:07;;;;;;;6.15;2.03;;;23.90;48.10;;;;;;7365632;19;20074;-68
2023/05/20 10:24:42;;;;;;;5.10;1.98;;;24.00;47.10;;;;;;7366135;19;20059;-65
2023/05/20 10:27:14;;;;;;;4.55;2.25;;;23.70;47.20;;;;;;7367763;19;20756;-64
2023/05/20 10:29:42;;;;;;;2.58;1.60;;;23.80;48.10;;;;;;7369873;19;20022;-64
2023/05/20 10:32:08;;;;;;;3.60;2.25;;;23.20;48.20;;;;;;7371901;19;20022;-64
2023/05/20 10:34:46;;;;;;;4.63;1.73;;;23.10;49.10;;;;;;7370119;19;20090;-64
2023/05/20 10:37:32;;;;;;;4.95;2.10;;;22.90;49.00;;;;;;7366676;19;20025;-64
2023/05/20 10:40:06;;;;;;;6.18;1.88;;;23.40;48.90;;;;;;7372587;19;20014;-63
2023/05/20 10:42:32;;;;;;;6.07;1.70;;;23.30;47.30;;;;;;7359630;19;20018;-64
2023/05/20 10:44:59;;;;;;;4.72;2.72;;;22.90;47.90;;;;;;7359647;19;20110;-62
2023/05/20 10:47:26;;;;;;;11.02;9.18;;;23.30;49.20;;;;;;7364139;19;20028;-63
2023/05/20 10:49:52;;;;;;;19.98;18.10;;;24.00;50.00;;;;;;7364588;19;20054;-64
2023/05/20 10:52:19;;;;;;;6.72;5.20;;;24.60;49.30;;;;;;7367907;19;20029;-61
2023/05/20 10:54:59;;;;;;;11.43;10.05;;;24.60;48.00;;;;;;7365137;19;20074;-61
2023/05/20 10:57:27;;;;;;;7.88;5.80;;;24.80;48.00;;;;;;7362176;19;20105;-61
2023/05/20 10:59:54;;;;;;;6.05;4.07;;;24.80;48.20;;;;;;7362947;19;20022;-61
2023/05/20 11:02:25;;;;;;;4.55;2.30;;;24.80;47.50;;;;;;7362778;19;20392;-61
2023/05/20 11:04:52;;;;;;;;;;;24.30;47.50;;;;;;7365341;19;20019;-61
2023/05/20 11:07:30;;;;;;;5.32;2.95;;;24.20;48.40;;;;;;7365294;19;19930;-61
2023/05/20 11:09:57;;;;;;;5.15;2.58;;;24.50;48.00;;;;;;7362412;19;20022;-68
2023/05/20 11:12:25;;;;;;;6.40;2.17;;;24.20;48.50;;;;;;7364104;19;20022;-68
2023/05/20 11:14:52;;;;;;;4.30;2.10;;;24.10;48.40;;;;;;7353685;19;20465;-69
2023/05/20 11:17:19;;;;;;;3.63;1.63;;;24.70;46.80;;;;;;7363310;19;20019;-68
2023/05/20 11:19:46;;;;;;;4.60;1.88;;;24.70;45.40;;;;;;7354328;19;20738;-68
2023/05/20 11:22:12;;;;;;;2.63;1.38;;;24.40;45.50;;;;;;7356674;19;20474;-68
2023/05/20 11:24:38;;;;;;;2.75;1.70;;;24.00;46.40;;;;;;7358373;19;20053;-61
2023/05/20 11:27:06;;;;;;;2.90;1.58;;;23.70;46.50;;;;;;7363157;19;20477;-61
2023/05/20 11:29:32;;;;;;;5.72;1.58;;;23.70;46.50;;;;;;7360074;19;20022;-60
2023/05/20 11:31:59;;;;;;;5.65;1.88;;;24.00;46.10;;;;;;7370820;19;20018;-60
2023/05/20 11:34:25;;;;;;;5.68;2.42;;;24.10;45.80;;;;;;7364336;19;20552;-60
2023/05/20 11:36:58;;;;;;;9.52;1.80;;;24.30;45.10;;;;;;7365548;19;20023;-60
2023/05/20 11:39:28;;;;;;;4.43;1.75;;;24.50;45.50;;;;;;7371259;19;20018;-60
2023/05/20 11:41:54;;;;;;;3.28;1.48;;;25.10;46.30;;;;;;7371070;19;21139;-60
2023/05/20 11:44:21;;;;;;;2.83;1.40;;;25.50;46.00;;;;;;7369246;19;20090;-61
2023/05/20 11:46:48;;;;;;;4.70;1.67;;;26.00;45.20;;;;;;7370581;19;20722;-61
2023/05/20 11:49:15;;;;;;;4.78;1.73;;;25.50;44.90;;;;;;7374383;19;20469;-61
2023/05/20 11:51:44;;;;;;;5.90;1.80;;;25.20;43.90;;;;;;7371001;19;20457;-58
2023/05/20 11:54:13;;;;;;;25.75;23.30;;;25.50;45.90;;;;;;7372321;19;20018;-60
2023/05/20 11:56:44;;;;;;;9.25;8.32;;;25.10;45.00;;;;;;7370233;19;20018;-68
2023/05/20 11:59:10;;;;;;;;;;;24.50;45.40;;;;;;7365214;19;20333;-68
2023/05/20 12:01:42;;;;;;;9.77;7.13;;;23.70;46.40;;;;;;7366878;19;19931;-68
2023/05/20 12:04:09;;;;;;;7.32;5.85;;;23.40;46.70;;;;;;7366115;19;20022;-68
2023/05/20 12:06:36;;;;;;;7.55;6.75;;;23.30;46.80;;;;;;7364668;19;20538;-69
2023/05/20 12:09:05;;;;;;;4.38;2.58;;;23.80;46.60;;;;;;7367425;19;20031;-69
2023/05/20 12:11:36;;;;;;;5.95;2.33;;;23.80;46.50;;;;;;7358379;19;20470;-68
2023/05/20 12:14:03;;;;;;;4.95;3.08;;;24.50;46.00;;;;;;7362536;19;20628;-60
2023/05/20 12:16:31;;;;;;;4.28;2.25;;;25.20;46.20;;;;;;7367542;19;20026;-68
2023/05/20 12:18:58;;;;;;;4.25;2.00;;;25.80;45.60;;;;;;7366555;19;20022;-63
2023/05/20 12:21:24;;;;;;;3.67;1.75;;;25.20;45.20;;;;;;7365997;19;21126;-62
2023/05/20 12:23:56;;;;;;;3.47;1.90;;;25.20;45.90;;;;;;7367593;19;20026;-65
2023/05/20 12:26:26;;;;;;;7.15;6.15;;;24.60;46.00;;;;;;7371368;19;20363;-69
2023/05/20 12:28:53;;;;;;;5.60;2.92;;;24.70;45.60;;;;;;7375652;19;20604;-61
2023/05/20 12:31:20;;;;;;;6.13;3.25;;;25.00;43.80;;;;;;7374084;19;20746;-70
2023/05/20 12:33:47;;;;;;;3.95;2.08;;;25.20;43.40;;;;;;7371396;19;20014;-62
2023/05/20 12:36:13;;;;;;;6.68;5.10;;;25.60;43.70;;;;;;7368341;19;20874;-69
2023/05/20 12:38:40;;;;;;;9.43;7.20;;;24.70;45.30;;;;;;7363773;19;20081;-61
2023/05/20 12:41:08;;;;;;;19.83;13.88;;;24.40;45.90;;;;;;7371675;19;20026;-61
2023/05/20 12:43:35;;;;;;;4.88;1.80;;;24.20;46.10;;;;;;7369539;19;20022;-61
2023/05/20 12:46:02;;;;;;;4.45;2.83;;;24.00;45.30;;;;;;7366447;19;20024;-67
2023/05/20 12:48:29;;;;;;;8.38;5.50;;;24.40;46.40;;;;;;7365645;19;20477;-67